sensor_id;sensor_type;location;lat;lon;timestamp;P1;durP1;ratioP1;P2;durP2;ratioP2
3267;SDS011;1646;52.450;13.326;2023-04-07T00:00:02;13.57;;;8.07;;
3267;SDS011;1646;52.450;13.326;2023-04-07T00:05:07;15.07;;;8.10;;
3267;SDS011;1646;52.450;13.326;2023-04-07T00:10:05;12.97;;;8.03;;
3267;SDS011;1646;52.450;13.326;2023-04-07T00:15:06;12.33;;;7.50;;
3267;SDS011;1646;52.450;13.326;2023-04-07T00:20:06;16.23;;;7.87;;
3267;SDS011;1646;52.450;13.326;2023-04-07T00:25:05;12.30;;;7.93;;
3267;SDS011;1646;52.450;13.326;2023-04-07T00:30:06;15.23;;;8.53;;
3267;SDS011;1646;52.450;13.326;2023-04-07T00:35:05;14.03;;;7.60;;
3267;SDS011;1646;52.450;13.326;2023-04-07T00:40:04;16.70;;;8.40;;
3267;SDS011;1646;52.450;13.326;2023-04-07T00:45:04;15.43;;;8.37;;
3267;SDS011;1646;52.450;13.326;2023-04-07T00:50:06;18.53;;;9.57;;
3267;SDS011;1646;52.450;13.326;2023-04-07T00:55:05;16.07;;;8.67;;
3267;SDS011;1646;52.450;13.326;2023-04-07T01:00:06;19.50;;;9.47;;
3267;SDS011;1646;52.450;13.326;2023-04-07T01:05:08;16.50;;;8.30;;
3267;SDS011;1646;52.450;13.326;2023-04-07T01:10:13;13.70;;;8.17;;
3267;SDS011;1646;52.450;13.326;2023-04-07T01:15:23;15.43;;;8.40;;
3267;SDS011;1646;52.450;13.326;2023-04-07T01:20:28;17.10;;;9.20;;
3267;SDS011;1646;52.450;13.326;2023-04-07T01:30:57;13.33;;;8.20;;
3267;SDS011;1646;52.450;13.326;2023-04-07T01:35:56;14.43;;;8.47;;
3267;SDS011;1646;52.450;13.326;2023-04-07T01:40:57;11.90;;;8.17;;
3267;SDS011;1646;52.450;13.326;2023-04-07T01:45:58;15.87;;;8.70;;
3267;SDS011;1646;52.450;13.326;2023-04-07T01:50:59;16.20;;;8.47;;
3267;SDS011;1646;52.450;13.326;2023-04-07T01:55:57;13.77;;;8.03;;
3267;SDS011;1646;52.450;13.326;2023-04-07T02:00:56;12.13;;;7.23;;
3267;SDS011;1646;52.450;13.326;2023-04-07T02:05:56;13.67;;;8.17;;
3267;SDS011;1646;52.450;13.326;2023-04-07T02:10:59;20.53;;;9.00;;
3267;SDS011;1646;52.450;13.326;2023-04-07T02:16:03;12.03;;;8.07;;
3267;SDS011;1646;52.450;13.326;2023-04-07T02:21:05;16.87;;;8.00;;
3267;SDS011;1646;52.450;13.326;2023-04-07T02:26:06;13.43;;;7.13;;
3267;SDS011;1646;52.450;13.326;2023-04-07T02:31:04;14.23;;;7.30;;
3267;SDS011;1646;52.450;13.326;2023-04-07T02:36:03;13.27;;;7.00;;
3267;SDS011;1646;52.450;13.326;2023-04-07T02:41:02;12.33;;;6.90;;
3267;SDS011;1646;52.450;13.326;2023-04-07T02:46:02;13.00;;;6.00;;
3267;SDS011;1646;52.450;13.326;2023-04-07T02:51:00;10.43;;;6.27;;
3267;SDS011;1646;52.450;13.326;2023-04-07T02:56:00;12.30;;;7.00;;
3267;SDS011;1646;52.450;13.326;2023-04-07T03:00:58;14.30;;;7.90;;
3267;SDS011;1646;52.450;13.326;2023-04-07T03:05:59;15.97;;;8.37;;
3267;SDS011;1646;52.450;13.326;2023-04-07T03:11:01;13.07;;;7.40;;
3267;SDS011;1646;52.450;13.326;2023-04-07T03:15:59;17.17;;;8.57;;
3267;SDS011;1646;52.450;13.326;2023-04-07T03:21:04;14.37;;;8.97;;
3267;SDS011;1646;52.450;13.326;2023-04-07T03:26:03;17.00;;;8.30;;
3267;SDS011;1646;52.450;13.326;2023-04-07T03:31:05;17.20;;;8.83;;
3267;SDS011;1646;52.450;13.326;2023-04-07T03:36:03;17.83;;;9.33;;
3267;SDS011;1646;52.450;13.326;2023-04-07T03:41:04;13.40;;;8.60;;
3267;SDS011;1646;52.450;13.326;2023-04-07T03:46:03;15.60;;;8.17;;
3267;SDS011;1646;52.450;13.326;2023-04-07T03:51:02;14.40;;;7.53;;
3267;SDS011;1646;52.450;13.326;2023-04-07T03:56:02;12.93;;;7.83;;
3267;SDS011;1646;52.450;13.326;2023-04-07T04:01:12;15.47;;;8.43;;
3267;SDS011;1646;52.450;13.326;2023-04-07T04:06:13;12.13;;;7.10;;
3267;SDS011;1646;52.450;13.326;2023-04-07T04:11:12;14.27;;;8.47;;
3267;SDS011;1646;52.450;13.326;2023-04-07T04:16:20;15.17;;;8.30;;
3267;SDS011;1646;52.450;13.326;2023-04-07T04:21:21;15.10;;;8.10;;
3267;SDS011;1646;52.450;13.326;2023-04-07T04:26:19;12.03;;;7.30;;
3267;SDS011;1646;52.450;13.326;2023-04-07T04:31:27;17.50;;;7.77;;
3267;SDS011;1646;52.450;13.326;2023-04-07T04:36:26;12.97;;;7.30;;
3267;SDS011;1646;52.450;13.326;2023-04-07T04:41:29;14.83;;;7.77;;
3267;SDS011;1646;52.450;13.326;2023-04-07T04:46:30;21.43;;;8.37;;
3267;SDS011;1646;52.450;13.326;2023-04-07T04:51:29;15.20;;;7.77;;
3267;SDS011;1646;52.450;13.326;2023-04-07T04:56:33;13.77;;;7.50;;
3267;SDS011;1646;52.450;13.326;2023-04-07T05:01:34;13.00;;;7.20;;
3267;SDS011;1646;52.450;13.326;2023-04-07T05:06:37;17.33;;;8.07;;
3267;SDS011;1646;52.450;13.326;2023-04-07T05:11:39;17.07;;;8.00;;
3267;SDS011;1646;52.450;13.326;2023-04-07T05:16:39;22.90;;;8.67;;
3267;SDS011;1646;52.450;13.326;2023-04-07T05:21:42;13.30;;;7.13;;
3267;SDS011;1646;52.450;13.326;2023-04-07T05:26:41;13.57;;;7.37;;
3267;SDS011;1646;52.450;13.326;2023-04-07T05:31:40;16.80;;;8.23;;
3267;SDS011;1646;52.450;13.326;2023-04-07T05:36:42;14.10;;;7.00;;
3267;SDS011;1646;52.450;13.326;2023-04-07T05:41:41;17.53;;;8.40;;
3267;SDS011;1646;52.450;13.326;2023-04-07T05:46:40;14.43;;;7.93;;
3267;SDS011;1646;52.450;13.326;2023-04-07T05:51:39;15.47;;;6.77;;
3267;SDS011;1646;52.450;13.326;2023-04-07T05:56:41;15.50;;;7.40;;
3267;SDS011;1646;52.450;13.326;2023-04-07T06:01:40;15.50;;;8.60;;
3267;SDS011;1646;52.450;13.326;2023-04-07T06:06:39;16.70;;;9.13;;
3267;SDS011;1646;52.450;13.326;2023-04-07T06:11:38;15.30;;;9.03;;
3267;SDS011;1646;52.450;13.326;2023-04-07T06:16:36;15.27;;;8.23;;
3267;SDS011;1646;52.450;13.326;2023-04-07T06:21:36;12.87;;;7.90;;
3267;SDS011;1646;52.450;13.326;2023-04-07T06:26:35;14.00;;;8.07;;
3267;SDS011;1646;52.450;13.326;2023-04-07T06:31:33;13.27;;;7.80;;
3267;SDS011;1646;52.450;13.326;2023-04-07T06:36:31;15.93;;;9.47;;
3267;SDS011;1646;52.450;13.326;2023-04-07T06:41:31;13.77;;;8.87;;
3267;SDS011;1646;52.450;13.326;2023-04-07T06:46:29;13.97;;;8.90;;
3267;SDS011;1646;52.450;13.326;2023-04-07T06:51:28;13.80;;;8.17;;
3267;SDS011;1646;52.450;13.326;2023-04-07T06:56:27;22.33;;;9.10;;
3267;SDS011;1646;52.450;13.326;2023-04-07T07:01:26;12.97;;;8.50;;
3267;SDS011;1646;52.450;13.326;2023-04-07T07:06:25;14.93;;;8.93;;
3267;SDS011;1646;52.450;13.326;2023-04-07T07:11:23;13.70;;;9.10;;
3267;SDS011;1646;52.450;13.326;2023-04-07T07:16:22;12.40;;;8.20;;
3267;SDS011;1646;52.450;13.326;2023-04-07T07:21:22;14.37;;;9.00;;
3267;SDS011;1646;52.450;13.326;2023-04-07T07:26:20;14.73;;;8.47;;
3267;SDS011;1646;52.450;13.326;2023-04-07T07:31:18;16.77;;;8.60;;
3267;SDS011;1646;52.450;13.326;2023-04-07T07:36:17;17.87;;;10.23;;
3267;SDS011;1646;52.450;13.326;2023-04-07T07:41:16;15.40;;;8.90;;
3267;SDS011;1646;52.450;13.326;2023-04-07T07:46:14;12.70;;;8.47;;
3267;SDS011;1646;52.450;13.326;2023-04-07T07:51:13;12.00;;;8.13;;
3267;SDS011;1646;52.450;13.326;2023-04-07T07:56:11;13.93;;;8.20;;
3267;SDS011;1646;52.450;13.326;2023-04-07T08:01:11;16.13;;;9.20;;
3267;SDS011;1646;52.450;13.326;2023-04-07T08:06:09;13.93;;;7.80;;
3267;SDS011;1646;52.450;13.326;2023-04-07T08:11:08;11.63;;;7.30;;
3267;SDS011;1646;52.450;13.326;2023-04-07T08:16:06;10.90;;;6.53;;
3267;SDS011;1646;52.450;13.326;2023-04-07T08:21:06;12.47;;;6.50;;
3267;SDS011;1646;52.450;13.326;2023-04-07T08:26:04;10.07;;;6.17;;
3267;SDS011;1646;52.450;13.326;2023-04-07T08:31:03;9.37;;;5.17;;
3267;SDS011;1646;52.450;13.326;2023-04-07T08:36:01;5.97;;;3.70;;
3267;SDS011;1646;52.450;13.326;2023-04-07T08:41:01;7.13;;;4.53;;
3267;SDS011;1646;52.450;13.326;2023-04-07T08:46:04;10.50;;;4.40;;
3267;SDS011;1646;52.450;13.326;2023-04-07T08:51:03;14.53;;;4.90;;
3267;SDS011;1646;52.450;13.326;2023-04-07T08:56:05;9.83;;;4.80;;
3267;SDS011;1646;52.450;13.326;2023-04-07T09:01:04;11.43;;;5.00;;
3267;SDS011;1646;52.450;13.326;2023-04-07T09:06:02;10.00;;;4.90;;
3267;SDS011;1646;52.450;13.326;2023-04-07T09:11:01;10.80;;;5.57;;
3267;SDS011;1646;52.450;13.326;2023-04-07T09:16:01;10.53;;;4.47;;
3267;SDS011;1646;52.450;13.326;2023-04-07T09:21:01;7.60;;;4.57;;
3267;SDS011;1646;52.450;13.326;2023-04-07T09:26:17;10.97;;;5.37;;
3267;SDS011;1646;52.450;13.326;2023-04-07T09:31:18;12.30;;;6.17;;
3267;SDS011;1646;52.450;13.326;2023-04-07T09:36:17;10.70;;;4.83;;
3267;SDS011;1646;52.450;13.326;2023-04-07T09:41:16;6.50;;;4.00;;
3267;SDS011;1646;52.450;13.326;2023-04-07T09:46:14;4.87;;;3.60;;
3267;SDS011;1646;52.450;13.326;2023-04-07T09:51:16;8.93;;;3.90;;
3267;SDS011;1646;52.450;13.326;2023-04-07T09:56:15;4.33;;;3.10;;
3267;SDS011;1646;52.450;13.326;2023-04-07T10:01:14;7.87;;;3.97;;
3267;SDS011;1646;52.450;13.326;2023-04-07T10:06:13;5.80;;;3.83;;
3267;SDS011;1646;52.450;13.326;2023-04-07T10:11:13;5.90;;;3.20;;
3267;SDS011;1646;52.450;13.326;2023-04-07T10:16:13;7.33;;;3.50;;
3267;SDS011;1646;52.450;13.326;2023-04-07T10:21:11;5.07;;;3.23;;
3267;SDS011;1646;52.450;13.326;2023-04-07T10:26:13;5.93;;;3.20;;
3267;SDS011;1646;52.450;13.326;2023-04-07T10:31:14;6.63;;;2.37;;
3267;SDS011;1646;52.450;13.326;2023-04-07T10:36:13;3.07;;;2.40;;
3267;SDS011;1646;52.450;13.326;2023-04-07T10:57:21;4.97;;;3.10;;
3267;SDS011;1646;52.450;13.326;2023-04-07T11:07:49;4.10;;;2.93;;
3267;SDS011;1646;52.450;13.326;2023-04-07T11:13:02;6.60;;;2.80;;
3267;SDS011;1646;52.450;13.326;2023-04-07T11:18:08;4.73;;;3.10;;
3267;SDS011;1646;52.450;13.326;2023-04-07T11:23:14;7.13;;;3.40;;
3267;SDS011;1646;52.450;13.326;2023-04-07T11:28:15;6.70;;;4.13;;
3267;SDS011;1646;52.450;13.326;2023-04-07T11:33:14;4.20;;;3.27;;
3267;SDS011;1646;52.450;13.326;2023-04-07T11:38:14;6.03;;;3.47;;
3267;SDS011;1646;52.450;13.326;2023-04-07T11:43:17;8.67;;;4.70;;
3267;SDS011;1646;52.450;13.326;2023-04-07T11:48:26;6.87;;;4.50;;
3267;SDS011;1646;52.450;13.326;2023-04-07T11:53:26;9.57;;;6.00;;
3267;SDS011;1646;52.450;13.326;2023-04-07T11:58:27;8.50;;;5.37;;
3267;SDS011;1646;52.450;13.326;2023-04-07T12:03:25;11.00;;;6.00;;
3267;SDS011;1646;52.450;13.326;2023-04-07T12:08:35;9.17;;;5.73;;
3267;SDS011;1646;52.450;13.326;2023-04-07T12:13:36;7.83;;;5.30;;
3267;SDS011;1646;52.450;13.326;2023-04-07T12:18:34;9.47;;;5.30;;
3267;SDS011;1646;52.450;13.326;2023-04-07T12:23:33;8.80;;;6.00;;
3267;SDS011;1646;52.450;13.326;2023-04-07T12:28:31;8.70;;;6.53;;
3267;SDS011;1646;52.450;13.326;2023-04-07T12:33:31;9.20;;;5.33;;
3267;SDS011;1646;52.450;13.326;2023-04-07T12:38:29;8.97;;;6.27;;
3267;SDS011;1646;52.450;13.326;2023-04-07T12:43:27;12.67;;;5.80;;
3267;SDS011;1646;52.450;13.326;2023-04-07T12:48:26;8.97;;;5.03;;
3267;SDS011;1646;52.450;13.326;2023-04-07T12:53:26;11.40;;;5.83;;
3267;SDS011;1646;52.450;13.326;2023-04-07T12:58:24;10.20;;;5.30;;
3267;SDS011;1646;52.450;13.326;2023-04-07T13:03:22;9.63;;;5.67;;
3267;SDS011;1646;52.450;13.326;2023-04-07T13:08:21;8.83;;;5.30;;
3267;SDS011;1646;52.450;13.326;2023-04-07T13:13:20;7.70;;;5.13;;
3267;SDS011;1646;52.450;13.326;2023-04-07T13:18:19;7.63;;;4.93;;
3267;SDS011;1646;52.450;13.326;2023-04-07T13:23:17;7.27;;;4.53;;
3267;SDS011;1646;52.450;13.326;2023-04-07T13:28:15;6.90;;;4.23;;
3267;SDS011;1646;52.450;13.326;2023-04-07T13:33:17;8.53;;;4.10;;
3267;SDS011;1646;52.450;13.326;2023-04-07T13:38:15;5.70;;;4.13;;
3267;SDS011;1646;52.450;13.326;2023-04-07T13:43:14;5.33;;;3.40;;
3267;SDS011;1646;52.450;13.326;2023-04-07T13:48:13;5.80;;;3.33;;
3267;SDS011;1646;52.450;13.326;2023-04-07T13:53:13;5.30;;;3.97;;
3267;SDS011;1646;52.450;13.326;2023-04-07T13:58:14;4.50;;;3.77;;
3267;SDS011;1646;52.450;13.326;2023-04-07T14:03:13;8.07;;;4.77;;
3267;SDS011;1646;52.450;13.326;2023-04-07T14:08:12;6.40;;;4.00;;
3267;SDS011;1646;52.450;13.326;2023-04-07T14:13:11;7.10;;;4.20;;
3267;SDS011;1646;52.450;13.326;2023-04-07T14:18:09;8.23;;;4.60;;
3267;SDS011;1646;52.450;13.326;2023-04-07T14:23:08;8.00;;;5.50;;
3267;SDS011;1646;52.450;13.326;2023-04-07T14:28:07;9.33;;;4.27;;
3267;SDS011;1646;52.450;13.326;2023-04-07T14:33:06;7.10;;;3.97;;
3267;SDS011;1646;52.450;13.326;2023-04-07T14:38:04;10.67;;;6.33;;
3267;SDS011;1646;52.450;13.326;2023-04-07T14:43:02;7.23;;;5.53;;
3267;SDS011;1646;52.450;13.326;2023-04-07T14:48:04;7.30;;;4.33;;
3267;SDS011;1646;52.450;13.326;2023-04-07T14:53:03;6.37;;;3.87;;
3267;SDS011;1646;52.450;13.326;2023-04-07T14:58:01;7.80;;;5.27;;
3267;SDS011;1646;52.450;13.326;2023-04-07T15:03:00;9.27;;;5.10;;
3267;SDS011;1646;52.450;13.326;2023-04-07T15:07:59;10.63;;;6.70;;
3267;SDS011;1646;52.450;13.326;2023-04-07T15:12:58;13.47;;;8.07;;
3267;SDS011;1646;52.450;13.326;2023-04-07T15:17:56;10.83;;;7.63;;
3267;SDS011;1646;52.450;13.326;2023-04-07T15:22:55;13.50;;;8.57;;
3267;SDS011;1646;52.450;13.326;2023-04-07T15:27:57;13.83;;;8.20;;
3267;SDS011;1646;52.450;13.326;2023-04-07T15:32:55;13.20;;;8.43;;
3267;SDS011;1646;52.450;13.326;2023-04-07T15:37:56;11.40;;;5.60;;
3267;SDS011;1646;52.450;13.326;2023-04-07T15:42:54;7.47;;;4.63;;
3267;SDS011;1646;52.450;13.326;2023-04-07T15:47:54;8.57;;;5.27;;
3267;SDS011;1646;52.450;13.326;2023-04-07T15:52:53;8.67;;;5.57;;
3267;SDS011;1646;52.450;13.326;2023-04-07T15:57:51;7.47;;;5.73;;
3267;SDS011;1646;52.450;13.326;2023-04-07T16:02:49;10.60;;;5.47;;
3267;SDS011;1646;52.450;13.326;2023-04-07T16:07:49;13.63;;;6.53;;
3267;SDS011;1646;52.450;13.326;2023-04-07T16:12:47;7.13;;;4.60;;
3267;SDS011;1646;52.450;13.326;2023-04-07T16:17:46;10.60;;;4.93;;
3267;SDS011;1646;52.450;13.326;2023-04-07T16:22:45;7.07;;;4.57;;
3267;SDS011;1646;52.450;13.326;2023-04-07T16:27:46;7.63;;;4.83;;
3267;SDS011;1646;52.450;13.326;2023-04-07T16:32:44;7.90;;;5.30;;
3267;SDS011;1646;52.450;13.326;2023-04-07T16:37:42;8.67;;;6.00;;
3267;SDS011;1646;52.450;13.326;2023-04-07T16:42:42;9.87;;;6.20;;
3267;SDS011;1646;52.450;13.326;2023-04-07T16:47:41;8.80;;;5.73;;
3267;SDS011;1646;52.450;13.326;2023-04-07T16:52:40;10.43;;;6.77;;
3267;SDS011;1646;52.450;13.326;2023-04-07T16:57:38;11.70;;;6.07;;
3267;SDS011;1646;52.450;13.326;2023-04-07T17:02:36;12.20;;;6.30;;
3267;SDS011;1646;52.450;13.326;2023-04-07T17:07:36;8.87;;;5.90;;
3267;SDS011;1646;52.450;13.326;2023-04-07T17:12:34;7.83;;;5.50;;
3267;SDS011;1646;52.450;13.326;2023-04-07T17:17:32;8.50;;;5.07;;
3267;SDS011;1646;52.450;13.326;2023-04-07T17:22:31;12.67;;;6.17;;
3267;SDS011;1646;52.450;13.326;2023-04-07T17:27:30;9.57;;;5.90;;
3267;SDS011;1646;52.450;13.326;2023-04-07T17:32:28;9.80;;;6.50;;
3267;SDS011;1646;52.450;13.326;2023-04-07T17:37:27;8.90;;;6.37;;
3267;SDS011;1646;52.450;13.326;2023-04-07T17:42:25;8.17;;;5.90;;
3267;SDS011;1646;52.450;13.326;2023-04-07T17:47:25;9.30;;;6.00;;
3267;SDS011;1646;52.450;13.326;2023-04-07T17:52:23;8.77;;;5.83;;
3267;SDS011;1646;52.450;13.326;2023-04-07T17:57:21;8.53;;;5.60;;
3267;SDS011;1646;52.450;13.326;2023-04-07T18:02:20;13.83;;;6.40;;
3267;SDS011;1646;52.450;13.326;2023-04-07T18:07:20;8.43;;;5.60;;
3267;SDS011;1646;52.450;13.326;2023-04-07T18:12:19;7.43;;;5.27;;
3267;SDS011;1646;52.450;13.326;2023-04-07T18:17:17;8.57;;;5.47;;
3267;SDS011;1646;52.450;13.326;2023-04-07T18:22:15;7.73;;;5.33;;
3267;SDS011;1646;52.450;13.326;2023-04-07T18:27:15;6.53;;;4.30;;
3267;SDS011;1646;52.450;13.326;2023-04-07T18:32:13;7.37;;;4.83;;
3267;SDS011;1646;52.450;13.326;2023-04-07T18:37:12;7.70;;;4.83;;
3267;SDS011;1646;52.450;13.326;2023-04-07T18:42:10;9.57;;;5.13;;
3267;SDS011;1646;52.450;13.326;2023-04-07T18:47:09;6.20;;;4.30;;
3267;SDS011;1646;52.450;13.326;2023-04-07T18:52:08;6.63;;;4.90;;
3267;SDS011;1646;52.450;13.326;2023-04-07T18:57:06;8.70;;;4.57;;
3267;SDS011;1646;52.450;13.326;2023-04-07T19:02:04;7.87;;;4.97;;
3267;SDS011;1646;52.450;13.326;2023-04-07T19:07:04;9.30;;;5.00;;
3267;SDS011;1646;52.450;13.326;2023-04-07T19:12:03;8.60;;;5.80;;
3267;SDS011;1646;52.450;13.326;2023-04-07T19:17:01;10.97;;;6.20;;
3267;SDS011;1646;52.450;13.326;2023-04-07T19:21:59;9.53;;;7.30;;
3267;SDS011;1646;52.450;13.326;2023-04-07T19:26:59;7.40;;;5.20;;
3267;SDS011;1646;52.450;13.326;2023-04-07T19:31:57;9.07;;;5.00;;
3267;SDS011;1646;52.450;13.326;2023-04-07T19:36:56;6.90;;;4.60;;
3267;SDS011;1646;52.450;13.326;2023-04-07T19:41:54;6.77;;;4.17;;
3267;SDS011;1646;52.450;13.326;2023-04-07T19:46:54;8.73;;;4.70;;
3267;SDS011;1646;52.450;13.326;2023-04-07T19:51:54;6.57;;;4.70;;
3267;SDS011;1646;52.450;13.326;2023-04-07T19:57:09;9.30;;;4.73;;
3267;SDS011;1646;52.450;13.326;2023-04-07T20:02:11;6.40;;;4.67;;
3267;SDS011;1646;52.450;13.326;2023-04-07T20:07:09;5.63;;;4.20;;
3267;SDS011;1646;52.450;13.326;2023-04-07T20:12:07;6.10;;;4.40;;
3267;SDS011;1646;52.450;13.326;2023-04-07T20:17:06;8.33;;;5.77;;
3267;SDS011;1646;52.450;13.326;2023-04-07T20:22:05;8.30;;;5.43;;
3267;SDS011;1646;52.450;13.326;2023-04-07T20:27:03;6.20;;;4.40;;
3267;SDS011;1646;52.450;13.326;2023-04-07T20:32:02;7.43;;;5.50;;
3267;SDS011;1646;52.450;13.326;2023-04-07T20:37:00;10.30;;;5.87;;
3267;SDS011;1646;52.450;13.326;2023-04-07T20:42:00;7.97;;;5.90;;
3267;SDS011;1646;52.450;13.326;2023-04-07T20:46:58;13.43;;;8.23;;
3267;SDS011;1646;52.450;13.326;2023-04-07T20:52:02;14.00;;;8.57;;
3267;SDS011;1646;52.450;13.326;2023-04-07T20:57:02;13.63;;;8.27;;
3267;SDS011;1646;52.450;13.326;2023-04-07T21:02:01;14.50;;;8.77;;
3267;SDS011;1646;52.450;13.326;2023-04-07T21:06:59;12.50;;;8.03;;
3267;SDS011;1646;52.450;13.326;2023-04-07T21:11:58;19.00;;;10.07;;
3267;SDS011;1646;52.450;13.326;2023-04-07T21:17:00;16.60;;;10.03;;
3267;SDS011;1646;52.450;13.326;2023-04-07T21:21:58;19.77;;;10.20;;
3267;SDS011;1646;52.450;13.326;2023-04-07T21:26:56;21.43;;;10.17;;
3267;SDS011;1646;52.450;13.326;2023-04-07T21:31:55;17.00;;;9.53;;
3267;SDS011;1646;52.450;13.326;2023-04-07T21:36:54;26.80;;;12.30;;
3267;SDS011;1646;52.450;13.326;2023-04-07T21:41:52;19.47;;;9.30;;
3267;SDS011;1646;52.450;13.326;2023-04-07T21:46:52;16.40;;;9.60;;
3267;SDS011;1646;52.450;13.326;2023-04-07T21:51:50;19.50;;;9.40;;
3267;SDS011;1646;52.450;13.326;2023-04-07T21:56:50;13.10;;;8.00;;
3267;SDS011;1646;52.450;13.326;2023-04-07T22:01:48;17.03;;;9.70;;
3267;SDS011;1646;52.450;13.326;2023-04-07T22:06:47;16.20;;;9.07;;
3267;SDS011;1646;52.450;13.326;2023-04-07T22:11:45;20.63;;;8.83;;
3267;SDS011;1646;52.450;13.326;2023-04-07T22:16:45;16.70;;;8.70;;
3267;SDS011;1646;52.450;13.326;2023-04-07T22:21:43;14.90;;;8.40;;
3267;SDS011;1646;52.450;13.326;2023-04-07T22:26:41;14.63;;;9.57;;
3267;SDS011;1646;52.450;13.326;2023-04-07T22:31:39;11.50;;;7.30;;
3267;SDS011;1646;52.450;13.326;2023-04-07T22:36:39;12.90;;;8.93;;
3267;SDS011;1646;52.450;13.326;2023-04-07T22:41:37;16.67;;;8.83;;
3267;SDS011;1646;52.450;13.326;2023-04-07T22:46:35;16.90;;;10.63;;
3267;SDS011;1646;52.450;13.326;2023-04-07T22:51:34;15.73;;;8.97;;
3267;SDS011;1646;52.450;13.326;2023-04-07T22:56:34;14.27;;;9.20;;
3267;SDS011;1646;52.450;13.326;2023-04-07T23:01:32;13.97;;;9.07;;
3267;SDS011;1646;52.450;13.326;2023-04-07T23:06:30;12.30;;;9.00;;
3267;SDS011;1646;52.450;13.326;2023-04-07T23:11:29;16.20;;;9.90;;
3267;SDS011;1646;52.450;13.326;2023-04-07T23:16:28;14.27;;;9.20;;
3267;SDS011;1646;52.450;13.326;2023-04-07T23:21:26;16.10;;;9.87;;
3267;SDS011;1646;52.450;13.326;2023-04-07T23:26:27;15.30;;;9.93;;
3267;SDS011;1646;52.450;13.326;2023-04-07T23:31:25;14.70;;;10.03;;
3267;SDS011;1646;52.450;13.326;2023-04-07T23:36:25;15.27;;;9.10;;
3267;SDS011;1646;52.450;13.326;2023-04-07T23:41:23;13.20;;;8.90;;
3267;SDS011;1646;52.450;13.326;2023-04-07T23:46:22;14.50;;;9.77;;
3267;SDS011;1646;52.450;13.326;2023-04-07T23:51:20;14.50;;;9.23;;
3267;SDS011;1646;52.450;13.326;2023-04-07T23:56:20;13.70;;;9.47;;
